Roxane — 9H9917 — position and weather

sailwx.info

Track history (hours):
 
Tides and Currents Weather Stations Pressure Air Temp Water Temp Dewpoint Dewpoint Depression Visibility Wind Speed Wind Dir Waves Ship Positions

Roxane

Last reported at 2015-Jun-09 19:23 UTC. Time now 2015-Jul-30 10:04 UTC.
Position N 37°36' E 026°51'.
Warning: this ship's position is 50 days out of date.

Length 46 m.

Type: Sailing vessel. MMSI: 248548000.

Date/timePositionNaut miles runAvg speedWind from/ knotsBaromVisibWave heightAir tempDewpointWater temp
2015-Jun-09 19:23N 37°36' E 026°51'7610.9
2015-Jun-09 12:24N 36°55' E 025°30'47410.8
2015-Jun-07 16:33N 37°59' E 015°38'1111.2
2015-Jun-07 15:34N 38°10' E 015°36'10 9.8
2015-Jun-07 14:33N 38°19' E 015°38'1211.1
2015-Jun-07 13:29N 38°28' E 015°28'9111.2
2015-Jun-07 05:22N 39°18' E 013°51'911.3
2015-Jun-07 04:33N 39°22' E 013°40'1111.4
2015-Jun-07 03:33N 39°28' E 013°27'36510.7
2015-Jun-05 17:32N 43°24' E 007°16'1110.7
2015-Jun-05 16:33N 43°34' E 007°10'2 2.1
2015-Jun-05 15:28N 43°36' E 007°08'0 0.0
2015-Jun-05 14:28N 43°36' E 007°08'0 0.0
2015-Jun-05 13:28N 43°36' E 007°08'0 0.0
2015-Jun-05 12:28N 43°36' E 007°08'0 0.0
2015-Jun-05 11:28N 43°36' E 007°08'1 1.5
2015-Jun-05 10:33N 43°35' E 007°10'2 1.5
2015-Jun-05 09:30N 43°35' E 007°08'0 0.0
2015-Jun-05 08:30N 43°35' E 007°08'0 0.0
2015-Jun-05 07:30N 43°35' E 007°08'0 0.0
2015-Jun-05 06:30N 43°35' E 007°08'1 0.7
2015-Jun-05 05:33N 43°35' E 007°08'0 0.0
2015-Jun-05 04:33N 43°35' E 007°08'0 0.0
2015-Jun-05 03:33N 43°35' E 007°08'0 0.0
2015-Jun-05 02:33N 43°35' E 007°08'0 0.0
2015-Jun-05 01:33N 43°35' E 007°08'0 0.0
2015-Jun-05 00:33N 43°35' E 007°08'0 0.0
2015-Jun-04 23:33N 43°35' E 007°08'0 0.0
2015-Jun-04 22:33N 43°35' E 007°08'0 0.0
2015-Jun-04 21:33N 43°35' E 007°08'0 0.0
2015-Jun-04 20:33N 43°35' E 007°08'0 0.0
2015-Jun-04 19:33N 43°35' E 007°08'0 0.0
2015-Jun-04 18:33N 43°35' E 007°08'0 0.0
2015-Jun-04 17:33N 43°35' E 007°08'0 0.0
2015-Jun-04 16:33N 43°35' E 007°08'0 0.0
2015-Jun-04 15:33N 43°35' E 007°08'0 0.0
2015-Jun-04 14:33N 43°35' E 007°08'0 0.0
2015-Jun-04 13:33N 43°35' E 007°08'0 0.0
2015-Jun-04 12:33N 43°35' E 007°08'0 0.4
2015-Jun-04 11:33N 43°35' E 007°08'2 1.7
2015-Jun-04 10:29N 43°35' E 007°11'1 1.5
2015-Jun-04 09:33N 43°36' E 007°11'2 2.3
2015-Jun-04 08:29N 43°35' E 007°08'0 0.0
2015-Jun-04 07:32N 43°35' E 007°08'0 0.0
2015-Jun-04 06:29N 43°35' E 007°08'0 0.0
2015-Jun-04 05:29N 43°35' E 007°08'0 0.0
2015-Jun-04 04:29N 43°35' E 007°08'0 0.0
2015-Jun-04 03:23N 43°35' E 007°08'0 0.0
2015-Jun-04 02:29N 43°35' E 007°08'0 0.0
2015-Jun-04 01:17N 43°35' E 007°08'0 0.0
2015-Jun-04 00:29N 43°35' E 007°08'0 0.0
2015-Jun-03 23:29N 43°35' E 007°08'0 0.0
2015-Jun-03 22:29N 43°35' E 007°08'0 0.0
2015-Jun-03 21:29N 43°35' E 007°08'0 0.0
2015-Jun-03 20:29N 43°35' E 007°08'0 0.0
2015-Jun-03 19:29N 43°35' E 007°08'0 0.0
2015-Jun-03 18:30N 43°35' E 007°08'18 9.1
2015-Jun-03 16:28N 43°20' E 006°52'1410.9
2015-Jun-03 15:12N 43°10' E 006°39'811.3
2015-Jun-03 14:32N 43°07' E 006°30'2110.3
2015-Jun-03 12:32N 43°03' E 006°02'3 3.1
2015-Jun-03 11:32N 43°05' E 005°59'2 0.1
2015-Jun-02 12:30N 43°05' E 005°56'0 0.0
2015-Jun-02 11:33N 43°05' E 005°56'0 0.0
2015-Jun-02 10:33N 43°05' E 005°56'0 0.0
2015-Jun-02 09:30N 43°05' E 005°56'0 0.0
2015-Jun-02 08:33N 43°05' E 005°56'0 0.0
2015-Jun-02 07:18N 43°05' E 005°56'0 0.0
2015-Jun-02 06:33N 43°05' E 005°56'0 0.0
2015-Jun-02 05:33N 43°05' E 005°56'0 0.0
2015-Jun-02 04:33N 43°05' E 005°56'0 0.0
2015-Jun-02 03:33N 43°05' E 005°56'0 0.0
2015-Jun-02 02:33N 43°05' E 005°56'0 0.0
2015-Jun-02 01:30N 43°05' E 005°56'0 0.0
2015-Jun-02 00:30N 43°05' E 005°56'0 0.0
2015-Jun-01 23:33N 43°05' E 005°56'0 0.0
2015-Jun-01 22:33N 43°05' E 005°56'0 0.0
2015-Jun-01 21:30N 43°05' E 005°56'0 0.0
2015-Jun-01 20:30N 43°05' E 005°56'0 0.0
2015-Jun-01 19:30N 43°05' E 005°56'0 0.0
2015-Jun-01 18:33N 43°05' E 005°56'0 0.0
2015-Jun-01 17:30N 43°05' E 005°56'0 0.0
2015-Jun-01 16:33N 43°05' E 005°56'0 0.0
2015-Jun-01 15:33N 43°05' E 005°56'0 0.0
2015-Jun-01 14:33N 43°05' E 005°56'0 0.0
2015-Jun-01 13:33N 43°05' E 005°56'0 0.0
2015-Jun-01 12:33N 43°05' E 005°56'0 0.0
2015-Jun-01 11:33N 43°05' E 005°56'0 0.0
2015-Jun-01 10:33N 43°05' E 005°56'0 0.0
2015-Jun-01 09:33N 43°05' E 005°56'0 0.0
2015-Jun-01 08:33N 43°05' E 005°56'0 0.0
2015-Jun-01 07:33N 43°05' E 005°56'0 0.0
2015-Jun-01 06:27N 43°05' E 005°56'0 0.0
2015-Jun-01 05:27N 43°05' E 005°56'0 0.0
2015-Jun-01 02:27N 43°05' E 005°56'0 0.0
2015-Jun-01 01:33N 43°05' E 005°56'0 0.0
2015-Jun-01 00:33N 43°05' E 005°56'0 0.0
2015-May-31 23:33N 43°05' E 005°56'0 0.0
2015-May-31 22:33N 43°05' E 005°56'0 0.0
2015-May-31 21:33N 43°05' E 005°56'0 0.0
2015-May-31 20:33N 43°05' E 005°56'0 0.0
2015-May-31 19:33N 43°05' E 005°56'0 0.0
2015-May-31 18:33N 43°05' E 005°56'0 0.0
2015-May-31 17:33N 43°05' E 005°56'0 0.0
2015-May-31 16:33N 43°05' E 005°56'0 0.0
2015-May-31 15:33N 43°05' E 005°56'0 0.0
2015-May-31 14:33N 43°05' E 005°56'0 0.0
2015-May-31 13:33N 43°05' E 005°56'0 0.0
2015-May-31 12:33N 43°05' E 005°56'0 0.0
2015-May-31 11:33N 43°05' E 005°56'0 0.0
2015-May-31 10:33N 43°05' E 005°56'0 0.0
2015-May-31 09:33N 43°05' E 005°56'0 0.0
2015-May-31 08:33N 43°05' E 005°56'0 0.0
2015-May-31 07:33N 43°05' E 005°56'0 0.0
2015-May-31 06:33N 43°05' E 005°56'0 0.0
2015-May-31 05:33N 43°05' E 005°56'0 0.0
2015-May-31 04:30N 43°05' E 005°56'0 0.0
2015-May-31 03:30N 43°05' E 005°56'0 0.0
2015-May-31 02:33N 43°05' E 005°56'0 0.0
2015-May-31 01:34N 43°05' E 005°56'0 0.0
2015-May-31 00:33N 43°05' E 005°56'0 0.0
2015-May-30 23:34N 43°05' E 005°56'0 0.0
2015-May-30 22:28N 43°05' E 005°56'0 0.0
2015-May-30 21:34N 43°05' E 005°56'0 0.0
2015-May-30 20:34N 43°05' E 005°56'0 0.0
2015-May-30 19:28N 43°05' E 005°56'  
Track history (hours):
 
Tides and Currents Weather Stations Pressure Air Temp Water Temp Dewpoint Dewpoint Depression Visibility Wind Speed Wind Dir Waves Ship Positions

Roxane

Last reported at 2015-Jun-09 19:23 UTC. Time now 2015-Jul-30 10:04 UTC.
Position N 37°36' E 026°51'.
Warning: this ship's position is 50 days out of date.

Length 46 m.

Type: Sailing vessel. MMSI: 248548000.

Date/timePositionNaut miles runAvg speedWind from/ knotsBaromVisibWave heightAir tempDewpointWater temp
2015-Jun-09 19:23N 37°36' E 026°51'7610.9
2015-Jun-09 12:24N 36°55' E 025°30'47410.8
2015-Jun-07 16:33N 37°59' E 015°38'1111.2
2015-Jun-07 15:34N 38°10' E 015°36'10 9.8
2015-Jun-07 14:33N 38°19' E 015°38'1211.1
2015-Jun-07 13:29N 38°28' E 015°28'9111.2
2015-Jun-07 05:22N 39°18' E 013°51'911.3
2015-Jun-07 04:33N 39°22' E 013°40'1111.4
2015-Jun-07 03:33N 39°28' E 013°27'36510.7
2015-Jun-05 17:32N 43°24' E 007°16'1110.7
2015-Jun-05 16:33N 43°34' E 007°10'2 2.1
2015-Jun-05 15:28N 43°36' E 007°08'0 0.0
2015-Jun-05 14:28N 43°36' E 007°08'0 0.0
2015-Jun-05 13:28N 43°36' E 007°08'0 0.0
2015-Jun-05 12:28N 43°36' E 007°08'0 0.0
2015-Jun-05 11:28N 43°36' E 007°08'1 1.5
2015-Jun-05 10:33N 43°35' E 007°10'2 1.5
2015-Jun-05 09:30N 43°35' E 007°08'0 0.0
2015-Jun-05 08:30N 43°35' E 007°08'0 0.0
2015-Jun-05 07:30N 43°35' E 007°08'0 0.0
2015-Jun-05 06:30N 43°35' E 007°08'1 0.7
2015-Jun-05 05:33N 43°35' E 007°08'0 0.0
2015-Jun-05 04:33N 43°35' E 007°08'0 0.0
2015-Jun-05 03:33N 43°35' E 007°08'0 0.0
2015-Jun-05 02:33N 43°35' E 007°08'0 0.0
2015-Jun-05 01:33N 43°35' E 007°08'0 0.0
2015-Jun-05 00:33N 43°35' E 007°08'0 0.0
2015-Jun-04 23:33N 43°35' E 007°08'0 0.0
2015-Jun-04 22:33N 43°35' E 007°08'0 0.0
2015-Jun-04 21:33N 43°35' E 007°08'0 0.0
2015-Jun-04 20:33N 43°35' E 007°08'0 0.0
2015-Jun-04 19:33N 43°35' E 007°08'0 0.0
2015-Jun-04 18:33N 43°35' E 007°08'0 0.0
2015-Jun-04 17:33N 43°35' E 007°08'0 0.0
2015-Jun-04 16:33N 43°35' E 007°08'0 0.0
2015-Jun-04 15:33N 43°35' E 007°08'0 0.0
2015-Jun-04 14:33N 43°35' E 007°08'0 0.0
2015-Jun-04 13:33N 43°35' E 007°08'0 0.0
2015-Jun-04 12:33N 43°35' E 007°08'0 0.4
2015-Jun-04 11:33N 43°35' E 007°08'2 1.7
2015-Jun-04 10:29N 43°35' E 007°11'1 1.5
2015-Jun-04 09:33N 43°36' E 007°11'2 2.3
2015-Jun-04 08:29N 43°35' E 007°08'0 0.0
2015-Jun-04 07:32N 43°35' E 007°08'0 0.0
2015-Jun-04 06:29N 43°35' E 007°08'0 0.0
2015-Jun-04 05:29N 43°35' E 007°08'0 0.0
2015-Jun-04 04:29N 43°35' E 007°08'0 0.0
2015-Jun-04 03:23N 43°35' E 007°08'0 0.0
2015-Jun-04 02:29N 43°35' E 007°08'0 0.0
2015-Jun-04 01:17N 43°35' E 007°08'0 0.0
2015-Jun-04 00:29N 43°35' E 007°08'0 0.0
2015-Jun-03 23:29N 43°35' E 007°08'0 0.0
2015-Jun-03 22:29N 43°35' E 007°08'0 0.0
2015-Jun-03 21:29N 43°35' E 007°08'0 0.0
2015-Jun-03 20:29N 43°35' E 007°08'0 0.0
2015-Jun-03 19:29N 43°35' E 007°08'0 0.0
2015-Jun-03 18:30N 43°35' E 007°08'18 9.1
2015-Jun-03 16:28N 43°20' E 006°52'1410.9
2015-Jun-03 15:12N 43°10' E 006°39'811.3
2015-Jun-03 14:32N 43°07' E 006°30'2110.3
2015-Jun-03 12:32N 43°03' E 006°02'3 3.1
2015-Jun-03 11:32N 43°05' E 005°59'2 0.1
2015-Jun-02 12:30N 43°05' E 005°56'0 0.0
2015-Jun-02 11:33N 43°05' E 005°56'0 0.0
2015-Jun-02 10:33N 43°05' E 005°56'0 0.0
2015-Jun-02 09:30N 43°05' E 005°56'0 0.0
2015-Jun-02 08:33N 43°05' E 005°56'0 0.0
2015-Jun-02 07:18N 43°05' E 005°56'0 0.0
2015-Jun-02 06:33N 43°05' E 005°56'0 0.0
2015-Jun-02 05:33N 43°05' E 005°56'0 0.0
2015-Jun-02 04:33N 43°05' E 005°56'0 0.0
2015-Jun-02 03:33N 43°05' E 005°56'0 0.0
2015-Jun-02 02:33N 43°05' E 005°56'0 0.0
2015-Jun-02 01:30N 43°05' E 005°56'0 0.0
2015-Jun-02 00:30N 43°05' E 005°56'0 0.0
2015-Jun-01 23:33N 43°05' E 005°56'0 0.0
2015-Jun-01 22:33N 43°05' E 005°56'0 0.0
2015-Jun-01 21:30N 43°05' E 005°56'0 0.0
2015-Jun-01 20:30N 43°05' E 005°56'0 0.0
2015-Jun-01 19:30N 43°05' E 005°56'0 0.0
2015-Jun-01 18:33N 43°05' E 005°56'0 0.0
2015-Jun-01 17:30N 43°05' E 005°56'0 0.0
2015-Jun-01 16:33N 43°05' E 005°56'0 0.0
2015-Jun-01 15:33N 43°05' E 005°56'0 0.0
2015-Jun-01 14:33N 43°05' E 005°56'0 0.0
2015-Jun-01 13:33N 43°05' E 005°56'0 0.0
2015-Jun-01 12:33N 43°05' E 005°56'0 0.0
2015-Jun-01 11:33N 43°05' E 005°56'0 0.0
2015-Jun-01 10:33N 43°05' E 005°56'0 0.0
2015-Jun-01 09:33N 43°05' E 005°56'0 0.0
2015-Jun-01 08:33N 43°05' E 005°56'0 0.0
2015-Jun-01 07:33N 43°05' E 005°56'0 0.0
2015-Jun-01 06:27N 43°05' E 005°56'0 0.0
2015-Jun-01 05:27N 43°05' E 005°56'0 0.0
2015-Jun-01 02:27N 43°05' E 005°56'0 0.0
2015-Jun-01 01:33N 43°05' E 005°56'0 0.0
2015-Jun-01 00:33N 43°05' E 005°56'0 0.0
2015-May-31 23:33N 43°05' E 005°56'0 0.0
2015-May-31 22:33N 43°05' E 005°56'0 0.0
2015-May-31 21:33N 43°05' E 005°56'0 0.0
2015-May-31 20:33N 43°05' E 005°56'0 0.0
2015-May-31 19:33N 43°05' E 005°56'0 0.0
2015-May-31 18:33N 43°05' E 005°56'0 0.0
2015-May-31 17:33N 43°05' E 005°56'0 0.0
2015-May-31 16:33N 43°05' E 005°56'0 0.0
2015-May-31 15:33N 43°05' E 005°56'0 0.0
2015-May-31 14:33N 43°05' E 005°56'0 0.0
2015-May-31 13:33N 43°05' E 005°56'0 0.0
2015-May-31 12:33N 43°05' E 005°56'0 0.0
2015-May-31 11:33N 43°05' E 005°56'0 0.0
2015-May-31 10:33N 43°05' E 005°56'0 0.0
2015-May-31 09:33N 43°05' E 005°56'0 0.0
2015-May-31 08:33N 43°05' E 005°56'0 0.0
2015-May-31 07:33N 43°05' E 005°56'0 0.0
2015-May-31 06:33N 43°05' E 005°56'0 0.0
2015-May-31 05:33N 43°05' E 005°56'0 0.0
2015-May-31 04:30N 43°05' E 005°56'0 0.0
2015-May-31 03:30N 43°05' E 005°56'0 0.0
2015-May-31 02:33N 43°05' E 005°56'0 0.0
2015-May-31 01:34N 43°05' E 005°56'0 0.0
2015-May-31 00:33N 43°05' E 005°56'0 0.0
2015-May-30 23:34N 43°05' E 005°56'0 0.0
2015-May-30 22:28N 43°05' E 005°56'0 0.0
2015-May-30 21:34N 43°05' E 005°56'0 0.0
2015-May-30 20:34N 43°05' E 005°56'0 0.0
2015-May-30 19:28N 43°05' E 005°56'  

Dump ship's entire track history